This is the latest recevied weather packets stored in our database for station/object p43g-13. If no packets are shown the sender has not sent any weather packets the latest 10 day(s).
| Time | Temp. | Humidity | Pressure | Rain* | Wind** | Luminosity | Snow |
|---|---|---|---|---|---|---|---|
| 1787863979 | 31.11° C | 74% | 1009.3 hPa | 0 mm | - | 282 W/m² | - |
| 1787863678 | 31.11° C | 74% | 1009.1 hPa | 0 mm | - | 314 W/m² | - |
| 1787863375 | 31.11° C | 75% | 1009.2 hPa | 0 mm | - | 309 W/m² | - |
| 1787863076 | 31.11° C | 75% | 1009.1 hPa | 0 mm | - | 391 W/m² | - |
| 1787862777 | 31.11° C | 75% | 1009.1 hPa | 0 mm | - | 379 W/m² | - |
| 1787862476 | 31.11° C | 75% | 1009.2 hPa | 0 mm | - | 414 W/m² | - |
| 1787862176 | 31.11° C | 75% | 1009.3 hPa | 0 mm | - | 453 W/m² | - |
| 1787861876 | 30.56° C | 74% | 1009.3 hPa | 0 mm | - | 440 W/m² | - |
| 1787861576 | 31.11° C | 74% | 1009.3 hPa | 0 mm | - | 455 W/m² | - |
| 1787861276 | 31.11° C | 73% | 1009.3 hPa | 0 mm | - | 490 W/m² | - |
| 1787860976 | 31.11° C | 73% | 1009.3 hPa | 0 mm | - | 482 W/m² | - |
| 1787860676 | 31.11° C | 74% | 1009.3 hPa | 0 mm | - | 547 W/m² | - |
| 1787860377 | 31.11° C | 75% | 1009.4 hPa | 0 mm | - | 576 W/m² | - |
| 1787860077 | 31.11° C | 74% | 1009.6 hPa | 0 mm | - | 435 W/m² | - |
| 1787859781 | 31.11° C | 74% | 1009.6 hPa | 0 mm | - | 656 W/m² | - |
| 1787859476 | 31.11° C | 74% | 1009.7 hPa | 0 mm | - | 483 W/m² | - |
| 1787859176 | 31.67° C | 72% | 1009.6 hPa | 0 mm | - | 645 W/m² | - |
| 1787858876 | 31.11° C | 73% | 1009.7 hPa | 0 mm | - | 640 W/m² | - |
| 1787858576 | 31.11° C | 72% | 1009.9 hPa | 0 mm | - | 541 W/m² | - |
| 1787858275 | 31.67° C | 72% | 1009.8 hPa | 0 mm | - | 697 W/m² | - |
| 1787857976 | 31.67° C | 71% | 1009.9 hPa | 0 mm | - | 694 W/m² | - |
| 1787857676 | 31.11° C | 72% | 1009.8 hPa | 0 mm | - | 704 W/m² | - |
| 1787857377 | 31.11° C | 71% | 1009.7 hPa | 0 mm | - | 719 W/m² | - |
| 1787857076 | 31.67° C | 72% | 1010 hPa | 0 mm | - | 733 W/m² | - |
| 1787856776 | 31.67° C | 70% | 1010.1 hPa | 0 mm | - | 755 W/m² | - |
* Rain latest hour (hover to see other rain measurements)
** Current wind speed in m/s (hover to see current wind gust speed)